Akiak, Alaska
Current Conditions -  °F | °C
As of 6:08 PM on Saturday 25 Oct 2014 (Local Time) from PFKW Reporting Station
Light Snow Light Snow  
Wind Chill: 24°   Ceiling: 400
Heat Index: 34°   Visibility: 9mi
Dew Point: 32°   Wind: 14mph
Humidity: 93%   Direction: 210°SSW
Pressure: 29.72"   Gusts: NA
Location:  60.92°N, 161.23°W
Report Text: PFKW 260208Z AUTO 21012KT 9SM -SN OVC004 01/00 A2972 RMK AO2 CIG 003V009 P0000 FZRANO
Loading
Personal Weather Stations






























Interactive Weather Map New forecast layout! Learn more

10-Day Weather Forecast

Advertisements
Track Severe Weather on mobile